sensor_id;sensor_type;location;lat;lon;timestamp;P1;P2;P0
26185;PMS7003;20067;48.764;9.176;2023-08-01T00:01:27;13.00;11.00;3.00
26185;PMS7003;20067;48.764;9.176;2023-08-01T00:03:54;11.00;10.25;2.50
26185;PMS7003;20067;48.764;9.176;2023-08-01T00:06:19;13.00;10.25;3.00
26185;PMS7003;20067;48.764;9.176;2023-08-01T00:08:47;10.75;10.00;3.00
26185;PMS7003;20067;48.764;9.176;2023-08-01T00:11:12;10.75;10.75;3.50
26185;PMS7003;20067;48.764;9.176;2023-08-01T00:13:39;10.75;9.50;2.00
26185;PMS7003;20067;48.764;9.176;2023-08-01T00:16:05;10.75;10.75;3.00
26185;PMS7003;20067;48.764;9.176;2023-08-01T00:18:31;9.75;9.75;3.00
26185;PMS7003;20067;48.764;9.176;2023-08-01T00:20:57;9.75;9.25;2.75
26185;PMS7003;20067;48.764;9.176;2023-08-01T00:23:24;14.00;12.75;3.50
26185;PMS7003;20067;48.764;9.176;2023-08-01T00:25:49;9.50;9.00;2.00
26185;PMS7003;20067;48.764;9.176;2023-08-01T00:28:19;10.00;10.00;3.00
26185;PMS7003;20067;48.764;9.176;2023-08-01T00:30:47;11.00;9.00;2.75
26185;PMS7003;20067;48.764;9.176;2023-08-01T00:33:12;10.00;10.00;2.00
26185;PMS7003;20067;48.764;9.176;2023-08-01T00:35:39;13.00;10.00;3.00
26185;PMS7003;20067;48.764;9.176;2023-08-01T00:38:05;13.00;10.00;2.75
26185;PMS7003;20067;48.764;9.176;2023-08-01T00:40:31;9.25;7.00;2.00
26185;PMS7003;20067;48.764;9.176;2023-08-01T00:42:57;10.25;10.25;2.75
26185;PMS7003;20067;48.764;9.176;2023-08-01T00:45:23;12.25;11.50;3.00
26185;PMS7003;20067;48.764;9.176;2023-08-01T00:47:51;11.00;9.00;3.00
26185;PMS7003;20067;48.764;9.176;2023-08-01T00:50:17;9.75;9.00;3.00
26185;PMS7003;20067;48.764;9.176;2023-08-01T00:52:45;13.50;11.50;4.50
26185;PMS7003;20067;48.764;9.176;2023-08-01T00:55:11;7.00;7.00;2.25
26185;PMS7003;20067;48.764;9.176;2023-08-01T00:57:37;9.00;7.00;2.50
26185;PMS7003;20067;48.764;9.176;2023-08-01T01:00:04;12.00;10.25;3.00
26185;PMS7003;20067;48.764;9.176;2023-08-01T01:02:30;11.00;11.00;5.00
26185;PMS7003;20067;48.764;9.176;2023-08-01T01:04:55;10.25;8.00;2.00
26185;PMS7003;20067;48.764;9.176;2023-08-01T01:07:21;11.00;11.00;3.00
26185;PMS7003;20067;48.764;9.176;2023-08-01T01:09:49;10.50;9.00;2.75
26185;PMS7003;20067;48.764;9.176;2023-08-01T01:12:15;11.25;10.50;3.00
26185;PMS7003;20067;48.764;9.176;2023-08-01T01:14:41;9.25;8.75;3.00
26185;PMS7003;20067;48.764;9.176;2023-08-01T01:17:06;10.50;10.50;2.50
26185;PMS7003;20067;48.764;9.176;2023-08-01T01:19:32;9.25;9.00;3.00
26185;PMS7003;20067;48.764;9.176;2023-08-01T01:21:58;10.25;9.25;3.00
26185;PMS7003;20067;48.764;9.176;2023-08-01T01:24:23;9.75;9.75;2.00
26185;PMS7003;20067;48.764;9.176;2023-08-01T01:26:52;10.75;9.75;3.00
26185;PMS7003;20067;48.764;9.176;2023-08-01T01:29:19;12.75;12.25;4.50
26185;PMS7003;20067;48.764;9.176;2023-08-01T01:31:46;10.25;9.00;3.00
26185;PMS7003;20067;48.764;9.176;2023-08-01T01:34:15;14.25;14.00;2.75
26185;PMS7003;20067;48.764;9.176;2023-08-01T01:36:40;10.50;9.25;2.75
26185;PMS7003;20067;48.764;9.176;2023-08-01T01:39:06;9.25;8.50;3.00
26185;PMS7003;20067;48.764;9.176;2023-08-01T01:41:32;13.00;12.00;4.00
26185;PMS7003;20067;48.764;9.176;2023-08-01T01:43:57;13.00;8.75;2.00
26185;PMS7003;20067;48.764;9.176;2023-08-01T01:46:23;12.00;9.00;2.00
26185;PMS7003;20067;48.764;9.176;2023-08-01T01:48:48;9.00;9.00;2.00
26185;PMS7003;20067;48.764;9.176;2023-08-01T01:51:14;13.00;11.25;4.00
26185;PMS7003;20067;48.764;9.176;2023-08-01T01:53:40;10.50;10.00;2.00
26185;PMS7003;20067;48.764;9.176;2023-08-01T01:56:05;13.00;11.00;5.00
26185;PMS7003;20067;48.764;9.176;2023-08-01T01:58:32;10.00;9.75;3.00
26185;PMS7003;20067;48.764;9.176;2023-08-01T02:00:58;13.75;11.50;4.50
26185;PMS7003;20067;48.764;9.176;2023-08-01T02:03:23;11.00;10.00;3.00
26185;PMS7003;20067;48.764;9.176;2023-08-01T02:05:49;11.75;9.25;2.75
26185;PMS7003;20067;48.764;9.176;2023-08-01T02:08:14;11.00;10.00;3.50
26185;PMS7003;20067;48.764;9.176;2023-08-01T02:10:40;10.25;10.00;3.00
26185;PMS7003;20067;48.764;9.176;2023-08-01T02:13:06;12.00;10.00;3.00
26185;PMS7003;20067;48.764;9.176;2023-08-01T02:15:33;10.25;10.00;3.00
26185;PMS7003;20067;48.764;9.176;2023-08-01T02:17:58;12.25;11.25;3.00
26185;PMS7003;20067;48.764;9.176;2023-08-01T02:20:24;11.50;11.50;3.00
26185;PMS7003;20067;48.764;9.176;2023-08-01T02:22:50;9.50;9.50;3.00
26185;PMS7003;20067;48.764;9.176;2023-08-01T02:25:15;10.75;9.75;4.50
26185;PMS7003;20067;48.764;9.176;2023-08-01T02:27:41;11.00;10.00;2.50
26185;PMS7003;20067;48.764;9.176;2023-08-01T02:30:07;13.25;10.50;3.00
26185;PMS7003;20067;48.764;9.176;2023-08-01T02:32:33;10.50;10.50;4.50
26185;PMS7003;20067;48.764;9.176;2023-08-01T02:34:58;10.50;10.00;3.50
26185;PMS7003;20067;48.764;9.176;2023-08-01T02:37:24;11.00;11.00;6.00
26185;PMS7003;20067;48.764;9.176;2023-08-01T02:39:49;10.25;8.75;3.00
26185;PMS7003;20067;48.764;9.176;2023-08-01T02:42:15;12.00;11.00;6.50
26185;PMS7003;20067;48.764;9.176;2023-08-01T02:44:40;9.75;9.50;4.25
26185;PMS7003;20067;48.764;9.176;2023-08-01T02:47:06;10.00;8.00;4.00
26185;PMS7003;20067;48.764;9.176;2023-08-01T02:49:32;12.50;10.00;3.50
26185;PMS7003;20067;48.764;9.176;2023-08-01T02:51:57;10.25;10.25;3.00
26185;PMS7003;20067;48.764;9.176;2023-08-01T02:54:24;10.00;9.00;3.00
26185;PMS7003;20067;48.764;9.176;2023-08-01T02:56:49;14.50;13.00;5.00
26185;PMS7003;20067;48.764;9.176;2023-08-01T02:59:16;13.00;11.00;5.00
26185;PMS7003;20067;48.764;9.176;2023-08-01T03:01:43;11.25;10.50;3.75
26185;PMS7003;20067;48.764;9.176;2023-08-01T03:04:09;10.75;10.00;2.50
26185;PMS7003;20067;48.764;9.176;2023-08-01T03:06:38;10.50;10.50;2.75
26185;PMS7003;20067;48.764;9.176;2023-08-01T03:09:04;10.00;10.00;2.75
26185;PMS7003;20067;48.764;9.176;2023-08-01T03:11:33;10.00;10.00;3.00
26185;PMS7003;20067;48.764;9.176;2023-08-01T03:14:02;10.75;10.75;3.00
26185;PMS7003;20067;48.764;9.176;2023-08-01T03:16:29;12.00;10.00;3.00
26185;PMS7003;20067;48.764;9.176;2023-08-01T03:18:55;12.25;12.25;3.25
26185;PMS7003;20067;48.764;9.176;2023-08-01T03:21:21;10.25;9.25;2.75
26185;PMS7003;20067;48.764;9.176;2023-08-01T03:23:46;13.25;10.75;3.00
26185;PMS7003;20067;48.764;9.176;2023-08-01T03:26:12;11.75;10.50;4.00
26185;PMS7003;20067;48.764;9.176;2023-08-01T03:28:38;9.25;8.50;2.00
26185;PMS7003;20067;48.764;9.176;2023-08-01T03:31:03;10.00;9.00;3.00
26185;PMS7003;20067;48.764;9.176;2023-08-01T03:33:29;11.50;9.75;2.75
26185;PMS7003;20067;48.764;9.176;2023-08-01T03:35:54;9.00;9.00;2.00
26185;PMS7003;20067;48.764;9.176;2023-08-01T03:38:20;7.00;7.00;2.00
26185;PMS7003;20067;48.764;9.176;2023-08-01T03:40:45;10.25;8.00;2.50
26185;PMS7003;20067;48.764;9.176;2023-08-01T03:43:11;13.00;10.00;3.00
26185;PMS7003;20067;48.764;9.176;2023-08-01T03:45:37;11.00;10.50;5.00
26185;PMS7003;20067;48.764;9.176;2023-08-01T03:48:02;8.75;8.75;3.00
26185;PMS7003;20067;48.764;9.176;2023-08-01T03:50:28;11.00;10.00;3.00
26185;PMS7003;20067;48.764;9.176;2023-08-01T03:52:54;12.50;11.25;3.00
26185;PMS7003;20067;48.764;9.176;2023-08-01T03:55:19;10.25;9.25;4.50
26185;PMS7003;20067;48.764;9.176;2023-08-01T03:57:45;10.50;8.75;2.75
26185;PMS7003;20067;48.764;9.176;2023-08-01T04:00:11;10.25;10.25;2.50
26185;PMS7003;20067;48.764;9.176;2023-08-01T04:02:40;8.50;8.50;2.50
26185;PMS7003;20067;48.764;9.176;2023-08-01T04:05:07;10.00;10.00;2.00
26185;PMS7003;20067;48.764;9.176;2023-08-01T04:07:33;9.50;8.50;2.00
26185;PMS7003;20067;48.764;9.176;2023-08-01T04:09:59;10.25;10.25;2.75
26185;PMS7003;20067;48.764;9.176;2023-08-01T04:12:25;10.25;10.25;3.00
26185;PMS7003;20067;48.764;9.176;2023-08-01T04:14:51;11.25;11.25;3.25
26185;PMS7003;20067;48.764;9.176;2023-08-01T04:17:17;13.25;13.25;2.75
26185;PMS7003;20067;48.764;9.176;2023-08-01T04:19:42;10.00;10.00;4.00
26185;PMS7003;20067;48.764;9.176;2023-08-01T04:22:08;17.00;14.50;3.75
26185;PMS7003;20067;48.764;9.176;2023-08-01T04:24:34;11.75;9.50;2.00
26185;PMS7003;20067;48.764;9.176;2023-08-01T04:26:59;15.00;14.50;3.50
26185;PMS7003;20067;48.764;9.176;2023-08-01T04:29:25;12.00;11.00;2.00
26185;PMS7003;20067;48.764;9.176;2023-08-01T04:31:50;13.00;12.00;4.00
26185;PMS7003;20067;48.764;9.176;2023-08-01T04:34:16;10.50;10.00;3.00
26185;PMS7003;20067;48.764;9.176;2023-08-01T04:36:42;13.75;11.25;5.25
26185;PMS7003;20067;48.764;9.176;2023-08-01T04:39:07;11.00;9.00;2.50
26185;PMS7003;20067;48.764;9.176;2023-08-01T04:41:33;11.50;10.25;3.00
26185;PMS7003;20067;48.764;9.176;2023-08-01T04:43:58;12.25;11.00;5.00
26185;PMS7003;20067;48.764;9.176;2023-08-01T04:46:24;11.00;9.25;3.50
26185;PMS7003;20067;48.764;9.176;2023-08-01T04:48:49;10.00;8.75;4.00
26185;PMS7003;20067;48.764;9.176;2023-08-01T04:51:15;9.75;9.00;5.00
26185;PMS7003;20067;48.764;9.176;2023-08-01T04:53:40;10.50;10.00;4.50
26185;PMS7003;20067;48.764;9.176;2023-08-01T04:56:06;11.00;9.75;2.75
26185;PMS7003;20067;48.764;9.176;2023-08-01T04:58:32;10.00;10.00;5.00
26185;PMS7003;20067;48.764;9.176;2023-08-01T05:00:57;13.50;10.00;5.25
26185;PMS7003;20067;48.764;9.176;2023-08-01T05:03:23;11.75;11.75;6.75
26185;PMS7003;20067;48.764;9.176;2023-08-01T05:05:49;12.50;12.50;3.00
26185;PMS7003;20067;48.764;9.176;2023-08-01T05:08:14;13.75;10.75;5.25
26185;PMS7003;20067;48.764;9.176;2023-08-01T05:10:40;10.25;10.25;5.50
26185;PMS7003;20067;48.764;9.176;2023-08-01T05:13:05;11.00;10.25;6.00
26185;PMS7003;20067;48.764;9.176;2023-08-01T05:15:31;10.00;10.00;6.25
26185;PMS7003;20067;48.764;9.176;2023-08-01T05:17:56;11.00;11.00;6.00
26185;PMS7003;20067;48.764;9.176;2023-08-01T05:20:22;12.00;10.00;6.25
26185;PMS7003;20067;48.764;9.176;2023-08-01T05:22:48;7.00;7.00;3.00
26185;PMS7003;20067;48.764;9.176;2023-08-01T05:25:13;14.00;12.00;7.25
26185;PMS7003;20067;48.764;9.176;2023-08-01T05:27:39;11.25;10.00;5.75
26185;PMS7003;20067;48.764;9.176;2023-08-01T05:30:05;11.75;8.25;5.50
26185;PMS7003;20067;48.764;9.176;2023-08-01T05:32:31;8.00;8.00;4.50
26185;PMS7003;20067;48.764;9.176;2023-08-01T05:34:57;10.50;10.50;5.75
26185;PMS7003;20067;48.764;9.176;2023-08-01T05:37:22;9.50;9.50;5.50
26185;PMS7003;20067;48.764;9.176;2023-08-01T05:39:49;10.00;10.00;4.50
26185;PMS7003;20067;48.764;9.176;2023-08-01T05:42:15;8.50;8.50;3.00
26185;PMS7003;20067;48.764;9.176;2023-08-01T05:44:40;11.00;8.00;5.00
26185;PMS7003;20067;48.764;9.176;2023-08-01T05:47:06;10.75;10.75;3.75
26185;PMS7003;20067;48.764;9.176;2023-08-01T05:49:31;11.50;10.00;4.50
26185;PMS7003;20067;48.764;9.176;2023-08-01T05:51:57;11.00;8.50;5.00
26185;PMS7003;20067;48.764;9.176;2023-08-01T05:54:23;11.00;7.00;3.00
26185;PMS7003;20067;48.764;9.176;2023-08-01T05:56:48;10.00;9.50;5.25
26185;PMS7003;20067;48.764;9.176;2023-08-01T05:59:14;13.00;10.75;5.00
26185;PMS7003;20067;48.764;9.176;2023-08-01T06:01:40;15.75;11.00;6.00
26185;PMS7003;20067;48.764;9.176;2023-08-01T06:04:05;12.00;10.25;5.00
26185;PMS7003;20067;48.764;9.176;2023-08-01T06:06:31;11.00;10.00;5.00
26185;PMS7003;20067;48.764;9.176;2023-08-01T06:08:56;11.50;11.50;5.00
26185;PMS7003;20067;48.764;9.176;2023-08-01T06:11:22;12.00;10.75;4.00
26185;PMS7003;20067;48.764;9.176;2023-08-01T06:13:48;10.75;10.00;5.00
26185;PMS7003;20067;48.764;9.176;2023-08-01T06:16:14;10.00;10.00;5.00
26185;PMS7003;20067;48.764;9.176;2023-08-01T06:18:39;9.00;9.00;2.75
26185;PMS7003;20067;48.764;9.176;2023-08-01T06:21:05;11.00;7.25;2.25
26185;PMS7003;20067;48.764;9.176;2023-08-01T06:23:30;10.50;10.50;5.50
26185;PMS7003;20067;48.764;9.176;2023-08-01T06:25:56;11.50;11.00;6.00
26185;PMS7003;20067;48.764;9.176;2023-08-01T06:28:22;12.25;10.00;5.50
26185;PMS7003;20067;48.764;9.176;2023-08-01T06:30:47;17.00;14.00;6.50
26185;PMS7003;20067;48.764;9.176;2023-08-01T06:33:13;15.25;15.00;7.00
26185;PMS7003;20067;48.764;9.176;2023-08-01T06:35:38;12.75;12.50;3.00
26185;PMS7003;20067;48.764;9.176;2023-08-01T06:38:04;16.50;14.00;4.75
26185;PMS7003;20067;48.764;9.176;2023-08-01T06:40:30;14.50;13.25;4.00
26185;PMS7003;20067;48.764;9.176;2023-08-01T06:42:55;17.00;16.50;8.00
26185;PMS7003;20067;48.764;9.176;2023-08-01T06:45:21;16.25;13.00;4.50
26185;PMS7003;20067;48.764;9.176;2023-08-01T06:47:46;16.75;16.00;4.75
26185;PMS7003;20067;48.764;9.176;2023-08-01T06:50:12;20.50;19.50;6.00
26185;PMS7003;20067;48.764;9.176;2023-08-01T06:52:37;13.50;13.50;5.00
26185;PMS7003;20067;48.764;9.176;2023-08-01T06:55:03;13.00;12.50;6.00
26185;PMS7003;20067;48.764;9.176;2023-08-01T06:57:29;12.75;12.75;6.00
26185;PMS7003;20067;48.764;9.176;2023-08-01T06:59:55;13.50;12.00;6.00
26185;PMS7003;20067;48.764;9.176;2023-08-01T07:02:21;13.25;13.25;6.75
26185;PMS7003;20067;48.764;9.176;2023-08-01T07:04:47;10.75;10.00;5.00
26185;PMS7003;20067;48.764;9.176;2023-08-01T07:07:13;16.50;13.25;6.75
26185;PMS7003;20067;48.764;9.176;2023-08-01T07:09:38;15.75;13.75;6.00
26185;PMS7003;20067;48.764;9.176;2023-08-01T07:12:04;18.75;12.50;5.25
26185;PMS7003;20067;48.764;9.176;2023-08-01T07:14:30;17.00;15.25;7.25
26185;PMS7003;20067;48.764;9.176;2023-08-01T07:16:56;13.00;13.00;6.00
26185;PMS7003;20067;48.764;9.176;2023-08-01T07:19:21;14.00;13.75;8.75
26185;PMS7003;20067;48.764;9.176;2023-08-01T07:21:48;17.00;13.75;6.00
26185;PMS7003;20067;48.764;9.176;2023-08-01T07:24:14;15.25;15.25;10.00
26185;PMS7003;20067;48.764;9.176;2023-08-01T07:26:40;14.50;13.50;7.00
26185;PMS7003;20067;48.764;9.176;2023-08-01T07:29:06;18.75;12.75;5.00
26185;PMS7003;20067;48.764;9.176;2023-08-01T07:31:33;15.75;13.00;5.00
26185;PMS7003;20067;48.764;9.176;2023-08-01T07:33:59;14.00;12.00;4.00
26185;PMS7003;20067;48.764;9.176;2023-08-01T07:36:24;12.00;12.00;4.00
26185;PMS7003;20067;48.764;9.176;2023-08-01T07:38:50;15.00;15.00;6.00
26185;PMS7003;20067;48.764;9.176;2023-08-01T07:41:15;14.00;13.75;6.00
26185;PMS7003;20067;48.764;9.176;2023-08-01T07:43:41;16.25;13.25;5.25
26185;PMS7003;20067;48.764;9.176;2023-08-01T07:46:07;21.00;20.25;13.00
26185;PMS7003;20067;48.764;9.176;2023-08-01T07:48:34;32.75;31.00;22.50
26185;PMS7003;20067;48.764;9.176;2023-08-01T07:51:00;40.75;40.00;29.00
26185;PMS7003;20067;48.764;9.176;2023-08-01T07:53:26;40.00;38.50;30.25
26185;PMS7003;20067;48.764;9.176;2023-08-01T07:55:52;41.33;40.33;30.67
26185;PMS7003;20067;48.764;9.176;2023-08-01T07:58:18;49.33;45.00;34.33
26185;PMS7003;20067;48.764;9.176;2023-08-01T08:00:44;50.33;45.67;35.67
26185;PMS7003;20067;48.764;9.176;2023-08-01T08:03:09;50.00;46.00;35.00
26185;PMS7003;20067;48.764;9.176;2023-08-01T08:05:35;47.00;45.00;35.00
26185;PMS7003;20067;48.764;9.176;2023-08-01T08:08:03;49.33;45.33;35.67
26185;PMS7003;20067;48.764;9.176;2023-08-01T08:10:30;55.33;48.33;37.33
26185;PMS7003;20067;48.764;9.176;2023-08-01T08:12:55;55.00;45.67;37.00
26185;PMS7003;20067;48.764;9.176;2023-08-01T08:15:21;49.00;45.00;35.00
26185;PMS7003;20067;48.764;9.176;2023-08-01T08:17:48;49.67;45.00;35.00
26185;PMS7003;20067;48.764;9.176;2023-08-01T08:20:14;48.33;44.00;35.00
26185;PMS7003;20067;48.764;9.176;2023-08-01T08:22:39;55.33;48.67;38.00
26185;PMS7003;20067;48.764;9.176;2023-08-01T08:25:05;51.67;44.33;35.00
26185;PMS7003;20067;48.764;9.176;2023-08-01T08:27:31;54.33;47.33;38.00
26185;PMS7003;20067;48.764;9.176;2023-08-01T08:29:56;53.00;47.67;37.33
26185;PMS7003;20067;48.764;9.176;2023-08-01T08:32:22;51.67;46.33;36.00
26185;PMS7003;20067;48.764;9.176;2023-08-01T08:34:48;49.00;44.00;36.00
26185;PMS7003;20067;48.764;9.176;2023-08-01T08:37:13;50.00;44.00;36.00
26185;PMS7003;20067;48.764;9.176;2023-08-01T08:39:39;52.00;47.00;37.00
26185;PMS7003;20067;48.764;9.176;2023-08-01T08:42:04;47.00;44.00;34.00
26185;PMS7003;20067;48.764;9.176;2023-08-01T08:44:30;51.00;46.33;36.33
26185;PMS7003;20067;48.764;9.176;2023-08-01T08:47:02;45.33;43.00;35.00
26185;PMS7003;20067;48.764;9.176;2023-08-01T08:49:31;48.00;44.00;35.67
26185;PMS7003;20067;48.764;9.176;2023-08-01T08:51:57;45.33;42.00;34.00
26185;PMS7003;20067;48.764;9.176;2023-08-01T08:54:23;48.00;44.33;34.67
26185;PMS7003;20067;48.764;9.176;2023-08-01T08:56:50;42.67;41.00;32.00
26185;PMS7003;20067;48.764;9.176;2023-08-01T08:59:17;46.33;42.33;33.33
26185;PMS7003;20067;48.764;9.176;2023-08-01T09:01:44;42.00;39.75;30.50
26185;PMS7003;20067;48.764;9.176;2023-08-01T09:04:11;46.33;43.33;33.33
26185;PMS7003;20067;48.764;9.176;2023-08-01T09:06:46;44.00;40.33;32.00
26185;PMS7003;20067;48.764;9.176;2023-08-01T09:09:15;46.67;43.33;32.33
26185;PMS7003;20067;48.764;9.176;2023-08-01T09:11:46;47.33;43.00;32.00
26185;PMS7003;20067;48.764;9.176;2023-08-01T09:14:15;49.67;44.00;34.00
26185;PMS7003;20067;48.764;9.176;2023-08-01T09:16:41;53.00;46.33;35.67
26185;PMS7003;20067;48.764;9.176;2023-08-01T09:19:08;48.25;44.50;34.50
26185;PMS7003;20067;48.764;9.176;2023-08-01T09:21:35;47.67;44.33;33.33
26185;PMS7003;20067;48.764;9.176;2023-08-01T09:24:08;48.67;44.67;35.00
26185;PMS7003;20067;48.764;9.176;2023-08-01T09:26:35;49.33;44.33;34.67
26185;PMS7003;20067;48.764;9.176;2023-08-01T09:29:01;48.00;44.67;35.00
26185;PMS7003;20067;48.764;9.176;2023-08-01T09:31:27;42.25;41.25;31.00
26185;PMS7003;20067;48.764;9.176;2023-08-01T09:33:54;46.00;43.25;34.00
26185;PMS7003;20067;48.764;9.176;2023-08-01T09:36:20;46.67;43.00;34.67
26185;PMS7003;20067;48.764;9.176;2023-08-01T09:38:47;41.33;39.67;31.33
26185;PMS7003;20067;48.764;9.176;2023-08-01T09:41:19;39.00;39.00;31.00
26185;PMS7003;20067;48.764;9.176;2023-08-01T09:43:46;36.00;36.00;29.75
26185;PMS7003;20067;48.764;9.176;2023-08-01T09:46:13;37.25;37.25;29.50
26185;PMS7003;20067;48.764;9.176;2023-08-01T09:48:39;36.25;35.25;29.75
26185;PMS7003;20067;48.764;9.176;2023-08-01T09:51:08;36.50;36.00;29.50
26185;PMS7003;20067;48.764;9.176;2023-08-01T09:53:36;35.75;35.00;28.00
26185;PMS7003;20067;48.764;9.176;2023-08-01T09:56:12;31.25;31.25;26.00
26185;PMS7003;20067;48.764;9.176;2023-08-01T09:58:42;32.25;32.25;27.25
26185;PMS7003;20067;48.764;9.176;2023-08-01T10:01:09;33.50;33.50;28.00
26185;PMS7003;20067;48.764;9.176;2023-08-01T10:03:35;35.00;34.75;29.00
26185;PMS7003;20067;48.764;9.176;2023-08-01T10:06:01;31.00;31.00;27.00
26185;PMS7003;20067;48.764;9.176;2023-08-01T10:08:28;29.00;29.00;25.25
26185;PMS7003;20067;48.764;9.176;2023-08-01T10:10:54;29.75;28.75;25.00
26185;PMS7003;20067;48.764;9.176;2023-08-01T10:13:22;30.75;30.75;26.25
26185;PMS7003;20067;48.764;9.176;2023-08-01T10:15:49;29.75;29.75;26.00
26185;PMS7003;20067;48.764;9.176;2023-08-01T10:18:18;24.50;24.50;21.75
26185;PMS7003;20067;48.764;9.176;2023-08-01T10:20:45;24.25;24.25;22.00
26185;PMS7003;20067;48.764;9.176;2023-08-01T10:23:12;25.75;25.75;22.75
26185;PMS7003;20067;48.764;9.176;2023-08-01T10:25:39;27.00;25.50;23.25
26185;PMS7003;20067;48.764;9.176;2023-08-01T10:28:05;25.75;25.75;23.00
26185;PMS7003;20067;48.764;9.176;2023-08-01T10:30:31;21.00;21.00;18.75
26185;PMS7003;20067;48.764;9.176;2023-08-01T10:32:57;17.00;17.00;14.25
26185;PMS7003;20067;48.764;9.176;2023-08-01T10:35:31;16.25;16.25;13.50
26185;PMS7003;20067;48.764;9.176;2023-08-01T10:38:03;18.75;18.75;16.00
26185;PMS7003;20067;48.764;9.176;2023-08-01T10:40:36;17.00;15.75;12.50
26185;PMS7003;20067;48.764;9.176;2023-08-01T10:43:04;16.75;16.75;14.25
26185;PMS7003;20067;48.764;9.176;2023-08-01T10:45:30;14.25;14.25;11.75
26185;PMS7003;20067;48.764;9.176;2023-08-01T10:48:07;13.00;13.00;9.00
26185;PMS7003;20067;48.764;9.176;2023-08-01T10:50:33;10.75;10.75;7.50
26185;PMS7003;20067;48.764;9.176;2023-08-01T10:53:02;7.50;7.50;4.00
26185;PMS7003;20067;48.764;9.176;2023-08-01T10:55:43;6.00;6.00;2.75
26185;PMS7003;20067;48.764;9.176;2023-08-01T10:58:10;8.75;8.75;4.00
26185;PMS7003;20067;48.764;9.176;2023-08-01T11:00:37;6.00;6.00;2.50
26185;PMS7003;20067;48.764;9.176;2023-08-01T11:03:03;3.25;3.25;1.00
26185;PMS7003;20067;48.764;9.176;2023-08-01T11:05:29;3.00;3.00;1.00
26185;PMS7003;20067;48.764;9.176;2023-08-01T11:07:58;3.25;3.00;1.00
26185;PMS7003;20067;48.764;9.176;2023-08-01T11:10:26;3.25;3.25;1.00
26185;PMS7003;20067;48.764;9.176;2023-08-01T11:12:54;3.75;3.75;1.00
26185;PMS7003;20067;48.764;9.176;2023-08-01T11:15:20;4.00;4.00;1.00
26185;PMS7003;20067;48.764;9.176;2023-08-01T11:17:46;4.00;4.00;1.00
26185;PMS7003;20067;48.764;9.176;2023-08-01T11:20:18;4.25;4.00;2.00
26185;PMS7003;20067;48.764;9.176;2023-08-01T11:25:19;4.00;4.00;2.00
26185;PMS7003;20067;48.764;9.176;2023-08-01T11:27:56;4.00;4.00;2.00
26185;PMS7003;20067;48.764;9.176;2023-08-01T11:30:29;3.75;3.25;1.00
26185;PMS7003;20067;48.764;9.176;2023-08-01T11:32:56;4.00;4.00;1.00
26185;PMS7003;20067;48.764;9.176;2023-08-01T11:35:22;3.75;3.75;1.50
26185;PMS7003;20067;48.764;9.176;2023-08-01T11:37:47;6.50;6.50;3.00
26185;PMS7003;20067;48.764;9.176;2023-08-01T11:40:15;9.50;8.25;4.75
26185;PMS7003;20067;48.764;9.176;2023-08-01T11:42:42;4.50;4.50;2.00
26185;PMS7003;20067;48.764;9.176;2023-08-01T11:45:08;3.25;3.25;1.00
26185;PMS7003;20067;48.764;9.176;2023-08-01T11:47:38;5.00;4.50;2.00
26185;PMS7003;20067;48.764;9.176;2023-08-01T11:50:10;5.00;5.00;2.00
26185;PMS7003;20067;48.764;9.176;2023-08-01T11:52:36;4.75;4.00;1.00
26185;PMS7003;20067;48.764;9.176;2023-08-01T11:55:02;4.00;4.00;1.00
26185;PMS7003;20067;48.764;9.176;2023-08-01T11:57:28;4.25;4.25;2.00
26185;PMS7003;20067;48.764;9.176;2023-08-01T11:59:54;5.00;4.00;1.25
26185;PMS7003;20067;48.764;9.176;2023-08-01T12:02:21;3.00;3.00;1.00
26185;PMS7003;20067;48.764;9.176;2023-08-01T12:04:51;3.50;3.50;1.00
26185;PMS7003;20067;48.764;9.176;2023-08-01T12:07:18;5.00;5.00;2.50
26185;PMS7003;20067;48.764;9.176;2023-08-01T12:09:54;4.00;4.00;1.25
26185;PMS7003;20067;48.764;9.176;2023-08-01T12:12:25;4.00;4.00;1.75
26185;PMS7003;20067;48.764;9.176;2023-08-01T12:14:52;3.75;3.75;1.00
26185;PMS7003;20067;48.764;9.176;2023-08-01T12:17:17;4.00;4.00;1.00
26185;PMS7003;20067;48.764;9.176;2023-08-01T12:19:43;4.00;4.00;2.00
26185;PMS7003;20067;48.764;9.176;2023-08-01T12:22:10;4.00;4.00;1.25
26185;PMS7003;20067;48.764;9.176;2023-08-01T12:24:37;5.00;5.00;2.75
26185;PMS7003;20067;48.764;9.176;2023-08-01T12:27:04;5.00;5.00;2.00
26185;PMS7003;20067;48.764;9.176;2023-08-01T12:29:34;4.25;4.25;1.00
26185;PMS7003;20067;48.764;9.176;2023-08-01T12:32:01;4.00;4.00;1.50
26185;PMS7003;20067;48.764;9.176;2023-08-01T12:34:27;3.75;3.75;1.50
26185;PMS7003;20067;48.764;9.176;2023-08-01T12:36:53;4.00;4.00;1.00
26185;PMS7003;20067;48.764;9.176;2023-08-01T12:39:19;4.25;4.25;2.00
26185;PMS7003;20067;48.764;9.176;2023-08-01T12:41:45;5.75;4.50;2.00
26185;PMS7003;20067;48.764;9.176;2023-08-01T12:44:11;5.50;5.50;3.00
26185;PMS7003;20067;48.764;9.176;2023-08-01T12:46:40;3.50;3.50;1.00
26185;PMS7003;20067;48.764;9.176;2023-08-01T12:49:06;3.75;3.75;1.00
26185;PMS7003;20067;48.764;9.176;2023-08-01T12:51:32;4.25;4.00;1.50
26185;PMS7003;20067;48.764;9.176;2023-08-01T12:53:58;4.50;4.50;2.00
26185;PMS7003;20067;48.764;9.176;2023-08-01T12:56:23;7.00;6.75;2.25
26185;PMS7003;20067;48.764;9.176;2023-08-01T12:58:49;4.25;4.25;2.00
26185;PMS7003;20067;48.764;9.176;2023-08-01T13:01:15;6.00;6.00;3.00
26185;PMS7003;20067;48.764;9.176;2023-08-01T13:03:40;7.00;7.00;3.25
26185;PMS7003;20067;48.764;9.176;2023-08-01T13:06:06;8.50;8.00;3.75
26185;PMS7003;20067;48.764;9.176;2023-08-01T13:08:34;7.00;6.50;3.00
26185;PMS7003;20067;48.764;9.176;2023-08-01T13:11:00;6.00;6.00;2.25
26185;PMS7003;20067;48.764;9.176;2023-08-01T13:13:27;5.00;5.00;2.00
26185;PMS7003;20067;48.764;9.176;2023-08-01T13:15:55;4.50;4.50;1.75
26185;PMS7003;20067;48.764;9.176;2023-08-01T13:18:22;4.25;4.25;2.00
26185;PMS7003;20067;48.764;9.176;2023-08-01T13:20:48;4.25;3.75;1.00
26185;PMS7003;20067;48.764;9.176;2023-08-01T13:23:13;4.50;4.50;2.00
26185;PMS7003;20067;48.764;9.176;2023-08-01T13:25:39;5.25;4.00;2.00
26185;PMS7003;20067;48.764;9.176;2023-08-01T13:28:05;6.00;5.00;2.00
26185;PMS7003;20067;48.764;9.176;2023-08-01T13:30:30;5.75;4.00;2.00
26185;PMS7003;20067;48.764;9.176;2023-08-01T13:32:56;4.50;4.00;2.00
26185;PMS7003;20067;48.764;9.176;2023-08-01T13:35:21;4.50;4.50;2.00
26185;PMS7003;20067;48.764;9.176;2023-08-01T13:37:47;4.25;4.25;2.00
26185;PMS7003;20067;48.764;9.176;2023-08-01T13:40:13;4.00;4.00;1.00
26185;PMS7003;20067;48.764;9.176;2023-08-01T13:42:40;5.00;5.00;1.75
26185;PMS7003;20067;48.764;9.176;2023-08-01T13:45:06;3.75;3.75;1.50
26185;PMS7003;20067;48.764;9.176;2023-08-01T13:47:32;4.00;4.00;2.00
26185;PMS7003;20067;48.764;9.176;2023-08-01T13:49:57;5.25;5.00;2.00
26185;PMS7003;20067;48.764;9.176;2023-08-01T13:52:23;5.00;5.00;2.00
26185;PMS7003;20067;48.764;9.176;2023-08-01T13:54:48;4.75;4.00;1.00
26185;PMS7003;20067;48.764;9.176;2023-08-01T13:57:14;4.50;4.50;2.00
26185;PMS7003;20067;48.764;9.176;2023-08-01T13:59:40;4.50;4.50;1.00
26185;PMS7003;20067;48.764;9.176;2023-08-01T14:02:05;4.50;4.00;1.00